sensor_id;sensor_type;location;lat;lon;timestamp;temperature;humidity
8778;DHT22;4425;50.872;4.712;2022-09-30T00:01:22;7.90;99.90
8778;DHT22;4425;50.872;4.712;2022-09-30T00:03:51;7.90;99.90
8778;DHT22;4425;50.872;4.712;2022-09-30T00:06:27;7.80;99.90
8778;DHT22;4425;50.872;4.712;2022-09-30T00:08:56;7.90;99.90
8778;DHT22;4425;50.872;4.712;2022-09-30T00:11:34;7.90;99.90
8778;DHT22;4425;50.872;4.712;2022-09-30T00:14:19;7.90;99.90
8778;DHT22;4425;50.872;4.712;2022-09-30T00:16:49;7.80;99.90
8778;DHT22;4425;50.872;4.712;2022-09-30T00:19:18;7.80;99.90
8778;DHT22;4425;50.872;4.712;2022-09-30T00:21:48;7.80;99.90
8778;DHT22;4425;50.872;4.712;2022-09-30T00:24:16;7.70;99.90
8778;DHT22;4425;50.872;4.712;2022-09-30T00:26:50;7.80;99.90
8778;DHT22;4425;50.872;4.712;2022-09-30T00:29:23;7.80;99.90
8778;DHT22;4425;50.872;4.712;2022-09-30T00:31:54;7.70;99.90
8778;DHT22;4425;50.872;4.712;2022-09-30T00:34:24;7.70;99.90
8778;DHT22;4425;50.872;4.712;2022-09-30T00:36:54;7.60;99.90
8778;DHT22;4425;50.872;4.712;2022-09-30T00:39:24;7.50;99.90
8778;DHT22;4425;50.872;4.712;2022-09-30T00:41:54;7.50;99.90
8778;DHT22;4425;50.872;4.712;2022-09-30T00:47:54;7.50;99.90
8778;DHT22;4425;50.872;4.712;2022-09-30T00:50:28;7.50;99.90
8778;DHT22;4425;50.872;4.712;2022-09-30T00:53:07;7.60;99.90
8778;DHT22;4425;50.872;4.712;2022-09-30T00:55:45;7.40;99.90
8778;DHT22;4425;50.872;4.712;2022-09-30T00:58:22;7.40;99.90
8778;DHT22;4425;50.872;4.712;2022-09-30T01:00:50;7.30;99.90
8778;DHT22;4425;50.872;4.712;2022-09-30T01:03:20;7.30;99.90
8778;DHT22;4425;50.872;4.712;2022-09-30T01:05:51;7.30;99.90
8778;DHT22;4425;50.872;4.712;2022-09-30T01:08:20;7.30;99.90
8778;DHT22;4425;50.872;4.712;2022-09-30T01:10:48;7.20;99.90
8778;DHT22;4425;50.872;4.712;2022-09-30T01:13:16;7.20;99.90
8778;DHT22;4425;50.872;4.712;2022-09-30T01:16:01;7.20;99.90
8778;DHT22;4425;50.872;4.712;2022-09-30T01:18:42;7.10;99.90
8778;DHT22;4425;50.872;4.712;2022-09-30T01:27:29;7.10;99.90
8778;DHT22;4425;50.872;4.712;2022-09-30T01:30:06;7.10;99.90
8778;DHT22;4425;50.872;4.712;2022-09-30T01:32:56;7.10;99.90
8778;DHT22;4425;50.872;4.712;2022-09-30T01:35:29;7.10;99.90
8778;DHT22;4425;50.872;4.712;2022-09-30T01:38:04;7.10;99.90
8778;DHT22;4425;50.872;4.712;2022-09-30T01:40:39;7.00;99.90
8778;DHT22;4425;50.872;4.712;2022-09-30T01:43:16;7.00;99.90
8778;DHT22;4425;50.872;4.712;2022-09-30T01:45:49;7.20;99.90
8778;DHT22;4425;50.872;4.712;2022-09-30T01:48:36;7.10;99.90
8778;DHT22;4425;50.872;4.712;2022-09-30T01:51:10;7.20;99.90
8778;DHT22;4425;50.872;4.712;2022-09-30T01:53:45;7.20;99.90
8778;DHT22;4425;50.872;4.712;2022-09-30T01:56:16;7.20;99.90
8778;DHT22;4425;50.872;4.712;2022-09-30T01:58:51;7.10;99.90
8778;DHT22;4425;50.872;4.712;2022-09-30T02:01:24;7.10;99.90
8778;DHT22;4425;50.872;4.712;2022-09-30T02:03:57;7.00;99.90
8778;DHT22;4425;50.872;4.712;2022-09-30T02:06:26;7.00;99.90
8778;DHT22;4425;50.872;4.712;2022-09-30T02:08:58;6.90;99.90
8778;DHT22;4425;50.872;4.712;2022-09-30T02:11:29;7.00;99.90
8778;DHT22;4425;50.872;4.712;2022-09-30T02:14:04;6.80;99.90
8778;DHT22;4425;50.872;4.712;2022-09-30T02:16:37;6.70;99.90
8778;DHT22;4425;50.872;4.712;2022-09-30T02:19:12;6.80;99.90
8778;DHT22;4425;50.872;4.712;2022-09-30T02:21:46;6.80;99.90
8778;DHT22;4425;50.872;4.712;2022-09-30T02:24:21;6.70;99.90
8778;DHT22;4425;50.872;4.712;2022-09-30T02:30:31;6.70;99.90
8778;DHT22;4425;50.872;4.712;2022-09-30T02:33:01;6.70;99.90
8778;DHT22;4425;50.872;4.712;2022-09-30T02:35:36;6.70;99.90
8778;DHT22;4425;50.872;4.712;2022-09-30T02:38:09;6.80;99.90
8778;DHT22;4425;50.872;4.712;2022-09-30T02:40:43;6.70;99.90
8778;DHT22;4425;50.872;4.712;2022-09-30T02:43:20;6.70;99.90
8778;DHT22;4425;50.872;4.712;2022-09-30T02:49:34;6.60;99.90
8778;DHT22;4425;50.872;4.712;2022-09-30T02:52:23;6.60;99.90
8778;DHT22;4425;50.872;4.712;2022-09-30T02:55:01;6.70;99.90
8778;DHT22;4425;50.872;4.712;2022-09-30T02:57:34;6.50;99.90
8778;DHT22;4425;50.872;4.712;2022-09-30T03:00:04;6.60;99.90
8778;DHT22;4425;50.872;4.712;2022-09-30T03:02:32;6.50;99.90
8778;DHT22;4425;50.872;4.712;2022-09-30T03:05:00;6.40;99.90
8778;DHT22;4425;50.872;4.712;2022-09-30T03:07:29;6.50;99.90
8778;DHT22;4425;50.872;4.712;2022-09-30T03:09:57;6.50;99.90
8778;DHT22;4425;50.872;4.712;2022-09-30T03:12:33;6.50;99.90
8778;DHT22;4425;50.872;4.712;2022-09-30T03:15:19;6.50;99.90
8778;DHT22;4425;50.872;4.712;2022-09-30T03:18:02;6.40;99.90
8778;DHT22;4425;50.872;4.712;2022-09-30T03:20:38;6.40;99.90
8778;DHT22;4425;50.872;4.712;2022-09-30T03:23:22;6.40;99.90
8778;DHT22;4425;50.872;4.712;2022-09-30T03:25:57;6.40;99.90
8778;DHT22;4425;50.872;4.712;2022-09-30T03:28:29;6.60;99.90
8778;DHT22;4425;50.872;4.712;2022-09-30T03:31:04;6.50;99.90
8778;DHT22;4425;50.872;4.712;2022-09-30T03:33:39;6.50;99.90
8778;DHT22;4425;50.872;4.712;2022-09-30T03:36:14;6.40;99.90
8778;DHT22;4425;50.872;4.712;2022-09-30T03:38:51;6.40;99.90
8778;DHT22;4425;50.872;4.712;2022-09-30T03:41:29;6.40;99.90
8778;DHT22;4425;50.872;4.712;2022-09-30T03:44:02;6.30;99.90
8778;DHT22;4425;50.872;4.712;2022-09-30T03:46:37;6.40;99.90
8778;DHT22;4425;50.872;4.712;2022-09-30T03:49:09;6.40;99.90
8778;DHT22;4425;50.872;4.712;2022-09-30T03:51:39;6.40;99.90
8778;DHT22;4425;50.872;4.712;2022-09-30T03:54:11;6.50;99.90
8778;DHT22;4425;50.872;4.712;2022-09-30T03:56:39;6.40;99.90
8778;DHT22;4425;50.872;4.712;2022-09-30T03:59:21;6.30;99.90
8778;DHT22;4425;50.872;4.712;2022-09-30T04:01:50;6.40;99.90
8778;DHT22;4425;50.872;4.712;2022-09-30T04:04:18;6.30;99.90
8778;DHT22;4425;50.872;4.712;2022-09-30T04:06:48;6.40;99.90
8778;DHT22;4425;50.872;4.712;2022-09-30T04:09:18;6.30;99.90
8778;DHT22;4425;50.872;4.712;2022-09-30T04:11:45;6.30;99.90
8778;DHT22;4425;50.872;4.712;2022-09-30T04:14:12;6.30;99.90
8778;DHT22;4425;50.872;4.712;2022-09-30T04:16:40;6.30;99.90
8778;DHT22;4425;50.872;4.712;2022-09-30T04:19:09;6.30;99.90
8778;DHT22;4425;50.872;4.712;2022-09-30T04:21:37;6.20;99.90
8778;DHT22;4425;50.872;4.712;2022-09-30T04:24:06;6.20;99.90
8778;DHT22;4425;50.872;4.712;2022-09-30T04:26:34;6.30;99.90
8778;DHT22;4425;50.872;4.712;2022-09-30T04:40:22;6.20;99.90
8778;DHT22;4425;50.872;4.712;2022-09-30T04:42:50;6.20;99.90
8778;DHT22;4425;50.872;4.712;2022-09-30T04:45:21;6.30;99.90
8778;DHT22;4425;50.872;4.712;2022-09-30T04:47:49;6.30;99.90
8778;DHT22;4425;50.872;4.712;2022-09-30T04:50:19;6.30;99.90
8778;DHT22;4425;50.872;4.712;2022-09-30T04:52:46;6.30;99.90
8778;DHT22;4425;50.872;4.712;2022-09-30T04:55:13;6.30;99.90
8778;DHT22;4425;50.872;4.712;2022-09-30T04:57:42;6.30;99.90
8778;DHT22;4425;50.872;4.712;2022-09-30T05:00:12;6.30;99.90
8778;DHT22;4425;50.872;4.712;2022-09-30T05:02:42;6.30;99.90
8778;DHT22;4425;50.872;4.712;2022-09-30T05:05:10;6.30;99.90
8778;DHT22;4425;50.872;4.712;2022-09-30T05:07:37;6.30;99.90
8778;DHT22;4425;50.872;4.712;2022-09-30T05:10:05;6.30;99.90
8778;DHT22;4425;50.872;4.712;2022-09-30T05:12:33;6.30;99.90
8778;DHT22;4425;50.872;4.712;2022-09-30T05:15:00;6.30;99.90
8778;DHT22;4425;50.872;4.712;2022-09-30T05:17:33;6.40;99.90
8778;DHT22;4425;50.872;4.712;2022-09-30T05:20:02;6.30;99.90
8778;DHT22;4425;50.872;4.712;2022-09-30T05:22:43;6.40;99.90
8778;DHT22;4425;50.872;4.712;2022-09-30T05:25:19;6.50;99.90
8778;DHT22;4425;50.872;4.712;2022-09-30T05:27:47;6.50;99.90
8778;DHT22;4425;50.872;4.712;2022-09-30T05:30:18;6.50;99.90
8778;DHT22;4425;50.872;4.712;2022-09-30T05:32:51;6.70;99.90
8778;DHT22;4425;50.872;4.712;2022-09-30T05:38:28;6.50;99.90
8778;DHT22;4425;50.872;4.712;2022-09-30T05:40:56;6.40;99.90
8778;DHT22;4425;50.872;4.712;2022-09-30T05:43:24;6.40;99.90
8778;DHT22;4425;50.872;4.712;2022-09-30T05:45:56;6.40;99.90
8778;DHT22;4425;50.872;4.712;2022-09-30T05:51:59;6.50;99.90
8778;DHT22;4425;50.872;4.712;2022-09-30T05:54:26;6.60;99.90
8778;DHT22;4425;50.872;4.712;2022-09-30T05:57:09;6.60;99.90
8778;DHT22;4425;50.872;4.712;2022-09-30T05:59:37;6.70;99.90
8778;DHT22;4425;50.872;4.712;2022-09-30T06:02:18;6.70;99.90
8778;DHT22;4425;50.872;4.712;2022-09-30T06:04:52;6.70;99.90
8778;DHT22;4425;50.872;4.712;2022-09-30T06:07:22;6.80;99.90
8778;DHT22;4425;50.872;4.712;2022-09-30T06:10:05;6.80;99.90
8778;DHT22;4425;50.872;4.712;2022-09-30T06:12:37;6.80;99.90
8778;DHT22;4425;50.872;4.712;2022-09-30T06:15:06;6.80;99.90
8778;DHT22;4425;50.872;4.712;2022-09-30T06:17:51;6.80;99.90
8778;DHT22;4425;50.872;4.712;2022-09-30T06:20:19;6.80;99.90
8778;DHT22;4425;50.872;4.712;2022-09-30T06:22:54;6.80;99.90
8778;DHT22;4425;50.872;4.712;2022-09-30T06:25:28;6.70;99.90
8778;DHT22;4425;50.872;4.712;2022-09-30T06:27:57;6.80;99.90
8778;DHT22;4425;50.872;4.712;2022-09-30T06:30:27;6.90;99.90
8778;DHT22;4425;50.872;4.712;2022-09-30T06:32:55;6.90;99.90
8778;DHT22;4425;50.872;4.712;2022-09-30T06:35:23;7.00;99.90
8778;DHT22;4425;50.872;4.712;2022-09-30T06:37:54;7.10;99.90
8778;DHT22;4425;50.872;4.712;2022-09-30T06:40:23;7.20;99.90
8778;DHT22;4425;50.872;4.712;2022-09-30T06:42:57;7.30;99.90
8778;DHT22;4425;50.872;4.712;2022-09-30T06:45:38;7.30;99.90
8778;DHT22;4425;50.872;4.712;2022-09-30T06:48:06;7.50;99.90
8778;DHT22;4425;50.872;4.712;2022-09-30T06:50:35;7.70;99.90
8778;DHT22;4425;50.872;4.712;2022-09-30T06:53:10;7.80;99.90
8778;DHT22;4425;50.872;4.712;2022-09-30T06:55:38;7.90;99.90
8778;DHT22;4425;50.872;4.712;2022-09-30T06:58:08;7.90;99.90
8778;DHT22;4425;50.872;4.712;2022-09-30T07:00:39;8.00;99.90
8778;DHT22;4425;50.872;4.712;2022-09-30T07:03:18;8.00;99.90
8778;DHT22;4425;50.872;4.712;2022-09-30T07:05:53;8.10;99.90
8778;DHT22;4425;50.872;4.712;2022-09-30T07:08:24;8.20;99.90
8778;DHT22;4425;50.872;4.712;2022-09-30T07:10:54;8.40;99.90
8778;DHT22;4425;50.872;4.712;2022-09-30T07:13:22;9.90;99.90
8778;DHT22;4425;50.872;4.712;2022-09-30T07:15:51;11.90;99.90
8778;DHT22;4425;50.872;4.712;2022-09-30T07:18:23;13.70;99.90
8778;DHT22;4425;50.872;4.712;2022-09-30T07:20:56;15.40;99.90
8778;DHT22;4425;50.872;4.712;2022-09-30T07:23:26;16.80;99.90
8778;DHT22;4425;50.872;4.712;2022-09-30T07:25:54;17.80;99.90
8778;DHT22;4425;50.872;4.712;2022-09-30T07:28:22;18.70;99.90
8778;DHT22;4425;50.872;4.712;2022-09-30T07:30:56;19.40;99.90
8778;DHT22;4425;50.872;4.712;2022-09-30T07:33:24;20.00;99.90
8778;DHT22;4425;50.872;4.712;2022-09-30T07:35:57;20.10;99.90
8778;DHT22;4425;50.872;4.712;2022-09-30T07:38:30;19.90;99.90
8778;DHT22;4425;50.872;4.712;2022-09-30T07:41:01;19.90;99.90
8778;DHT22;4425;50.872;4.712;2022-09-30T07:43:30;19.70;99.90
8778;DHT22;4425;50.872;4.712;2022-09-30T07:46:03;19.90;99.90
8778;DHT22;4425;50.872;4.712;2022-09-30T07:48:32;20.10;99.90
8778;DHT22;4425;50.872;4.712;2022-09-30T07:51:14;20.10;99.90
8778;DHT22;4425;50.872;4.712;2022-09-30T07:53:46;20.00;99.90
8778;DHT22;4425;50.872;4.712;2022-09-30T07:56:14;20.10;99.90
8778;DHT22;4425;50.872;4.712;2022-09-30T07:58:43;20.40;99.90
8778;DHT22;4425;50.872;4.712;2022-09-30T08:01:11;20.70;99.90
8778;DHT22;4425;50.872;4.712;2022-09-30T08:03:41;20.70;99.90
8778;DHT22;4425;50.872;4.712;2022-09-30T08:06:11;20.90;99.90
8778;DHT22;4425;50.872;4.712;2022-09-30T08:08:39;21.20;99.90
8778;DHT22;4425;50.872;4.712;2022-09-30T08:11:09;20.90;99.90
8778;DHT22;4425;50.872;4.712;2022-09-30T08:13:49;21.00;99.90
8778;DHT22;4425;50.872;4.712;2022-09-30T08:16:20;21.40;99.90
8778;DHT22;4425;50.872;4.712;2022-09-30T08:18:53;21.20;99.90
8778;DHT22;4425;50.872;4.712;2022-09-30T08:21:26;19.80;99.90
8778;DHT22;4425;50.872;4.712;2022-09-30T08:23:55;18.40;99.90
8778;DHT22;4425;50.872;4.712;2022-09-30T08:26:45;17.00;99.90
8778;DHT22;4425;50.872;4.712;2022-09-30T08:29:17;15.80;99.90
8778;DHT22;4425;50.872;4.712;2022-09-30T08:31:53;14.90;99.90
8778;DHT22;4425;50.872;4.712;2022-09-30T08:34:20;14.10;99.90
8778;DHT22;4425;50.872;4.712;2022-09-30T08:36:48;13.70;99.90
8778;DHT22;4425;50.872;4.712;2022-09-30T08:39:26;13.40;99.90
8778;DHT22;4425;50.872;4.712;2022-09-30T08:45:56;12.90;99.90
8778;DHT22;4425;50.872;4.712;2022-09-30T08:52:12;12.70;99.90
8778;DHT22;4425;50.872;4.712;2022-09-30T08:54:46;12.80;99.90
8778;DHT22;4425;50.872;4.712;2022-09-30T08:57:15;12.90;99.90
8778;DHT22;4425;50.872;4.712;2022-09-30T08:59:49;13.00;99.90
8778;DHT22;4425;50.872;4.712;2022-09-30T09:02:42;13.10;99.90
8778;DHT22;4425;50.872;4.712;2022-09-30T09:05:17;13.20;99.90
8778;DHT22;4425;50.872;4.712;2022-09-30T09:07:52;13.20;99.90
8778;DHT22;4425;50.872;4.712;2022-09-30T09:10:27;13.20;99.90
8778;DHT22;4425;50.872;4.712;2022-09-30T09:13:01;13.30;99.90
8778;DHT22;4425;50.872;4.712;2022-09-30T09:15:41;13.40;99.90
8778;DHT22;4425;50.872;4.712;2022-09-30T09:18:36;13.50;99.90
8778;DHT22;4425;50.872;4.712;2022-09-30T09:21:16;13.40;99.90
8778;DHT22;4425;50.872;4.712;2022-09-30T09:23:47;13.50;99.90
8778;DHT22;4425;50.872;4.712;2022-09-30T09:26:18;13.40;99.90
8778;DHT22;4425;50.872;4.712;2022-09-30T09:28:55;13.60;99.90
8778;DHT22;4425;50.872;4.712;2022-09-30T09:31:26;13.70;99.90
8778;DHT22;4425;50.872;4.712;2022-09-30T09:34:00;13.70;99.90
8778;DHT22;4425;50.872;4.712;2022-09-30T09:36:45;13.80;99.90
8778;DHT22;4425;50.872;4.712;2022-09-30T09:39:26;13.80;99.90
8778;DHT22;4425;50.872;4.712;2022-09-30T09:42:02;13.90;99.90
8778;DHT22;4425;50.872;4.712;2022-09-30T09:44:37;14.00;99.90
8778;DHT22;4425;50.872;4.712;2022-09-30T09:47:08;14.10;99.90
8778;DHT22;4425;50.872;4.712;2022-09-30T09:49:42;14.30;99.90
8778;DHT22;4425;50.872;4.712;2022-09-30T09:52:51;14.50;99.90
8778;DHT22;4425;50.872;4.712;2022-09-30T09:55:30;14.50;99.90
8778;DHT22;4425;50.872;4.712;2022-09-30T09:58:05;14.60;99.90
8778;DHT22;4425;50.872;4.712;2022-09-30T10:00:32;14.70;99.90
8778;DHT22;4425;50.872;4.712;2022-09-30T10:03:19;14.80;99.90
8778;DHT22;4425;50.872;4.712;2022-09-30T10:06:02;15.10;99.90
8778;DHT22;4425;50.872;4.712;2022-09-30T10:08:32;15.00;99.90
8778;DHT22;4425;50.872;4.712;2022-09-30T10:11:03;15.10;99.90
8778;DHT22;4425;50.872;4.712;2022-09-30T10:13:40;15.10;99.90
8778;DHT22;4425;50.872;4.712;2022-09-30T10:16:27;15.20;99.90
8778;DHT22;4425;50.872;4.712;2022-09-30T10:18:55;15.30;99.90
8778;DHT22;4425;50.872;4.712;2022-09-30T10:21:29;15.40;99.90
8778;DHT22;4425;50.872;4.712;2022-09-30T10:23:57;15.50;99.90
8778;DHT22;4425;50.872;4.712;2022-09-30T10:26:27;15.60;99.90
8778;DHT22;4425;50.872;4.712;2022-09-30T10:28:57;15.60;99.90
8778;DHT22;4425;50.872;4.712;2022-09-30T10:31:28;15.70;99.90
8778;DHT22;4425;50.872;4.712;2022-09-30T10:34:00;15.80;99.90
8778;DHT22;4425;50.872;4.712;2022-09-30T10:36:32;16.00;99.90
8778;DHT22;4425;50.872;4.712;2022-09-30T10:39:02;16.10;99.90
8778;DHT22;4425;50.872;4.712;2022-09-30T10:41:33;16.10;99.90
8778;DHT22;4425;50.872;4.712;2022-09-30T10:44:02;16.10;99.90
8778;DHT22;4425;50.872;4.712;2022-09-30T10:46:33;16.10;99.90
8778;DHT22;4425;50.872;4.712;2022-09-30T10:49:08;16.00;99.90
8778;DHT22;4425;50.872;4.712;2022-09-30T10:51:48;16.00;99.90
8778;DHT22;4425;50.872;4.712;2022-09-30T10:54:48;16.20;99.90
8778;DHT22;4425;50.872;4.712;2022-09-30T10:57:21;16.50;99.90
8778;DHT22;4425;50.872;4.712;2022-09-30T10:59:54;16.80;99.90
8778;DHT22;4425;50.872;4.712;2022-09-30T11:02:28;16.80;99.90
8778;DHT22;4425;50.872;4.712;2022-09-30T11:05:04;16.80;99.90
8778;DHT22;4425;50.872;4.712;2022-09-30T11:07:38;16.80;99.90
8778;DHT22;4425;50.872;4.712;2022-09-30T11:10:20;16.80;99.90
8778;DHT22;4425;50.872;4.712;2022-09-30T11:12:58;16.80;99.90
8778;DHT22;4425;50.872;4.712;2022-09-30T11:15:29;16.80;99.90
8778;DHT22;4425;50.872;4.712;2022-09-30T11:18:00;16.70;99.90
8778;DHT22;4425;50.872;4.712;2022-09-30T11:20:33;16.80;99.90
8778;DHT22;4425;50.872;4.712;2022-09-30T11:23:05;16.80;99.90
8778;DHT22;4425;50.872;4.712;2022-09-30T11:25:43;17.00;99.90
8778;DHT22;4425;50.872;4.712;2022-09-30T11:28:44;17.20;99.90
8778;DHT22;4425;50.872;4.712;2022-09-30T11:31:23;17.40;99.90
8778;DHT22;4425;50.872;4.712;2022-09-30T11:34:04;17.50;99.90
8778;DHT22;4425;50.872;4.712;2022-09-30T11:36:40;17.50;99.90
8778;DHT22;4425;50.872;4.712;2022-09-30T11:42:17;17.60;99.90
8778;DHT22;4425;50.872;4.712;2022-09-30T11:44:45;17.70;99.90
8778;DHT22;4425;50.872;4.712;2022-09-30T11:47:33;17.70;99.90
8778;DHT22;4425;50.872;4.712;2022-09-30T11:53:26;18.00;99.90
8778;DHT22;4425;50.872;4.712;2022-09-30T11:56:11;17.90;99.90
8778;DHT22;4425;50.872;4.712;2022-09-30T11:58:46;17.90;99.90
8778;DHT22;4425;50.872;4.712;2022-09-30T12:01:18;18.00;99.90
8778;DHT22;4425;50.872;4.712;2022-09-30T12:03:53;18.30;99.90
8778;DHT22;4425;50.872;4.712;2022-09-30T12:06:27;18.20;99.90
8778;DHT22;4425;50.872;4.712;2022-09-30T12:09:00;17.90;99.90
8778;DHT22;4425;50.872;4.712;2022-09-30T12:11:36;17.80;99.90
8778;DHT22;4425;50.872;4.712;2022-09-30T12:14:09;17.90;99.90
8778;DHT22;4425;50.872;4.712;2022-09-30T12:16:39;18.00;99.90
8778;DHT22;4425;50.872;4.712;2022-09-30T12:19:13;18.10;99.90
8778;DHT22;4425;50.872;4.712;2022-09-30T12:21:48;18.00;99.90
8778;DHT22;4425;50.872;4.712;2022-09-30T12:24:22;18.00;99.90
8778;DHT22;4425;50.872;4.712;2022-09-30T12:26:53;18.00;99.90
8778;DHT22;4425;50.872;4.712;2022-09-30T12:29:23;18.00;99.90
8778;DHT22;4425;50.872;4.712;2022-09-30T12:35:23;17.60;99.90
8778;DHT22;4425;50.872;4.712;2022-09-30T12:38:11;17.60;99.90
8778;DHT22;4425;50.872;4.712;2022-09-30T12:40:54;17.80;99.90
8778;DHT22;4425;50.872;4.712;2022-09-30T12:44:01;18.00;99.90
8778;DHT22;4425;50.872;4.712;2022-09-30T12:46:49;18.40;99.90
8778;DHT22;4425;50.872;4.712;2022-09-30T12:49:22;18.40;99.90
8778;DHT22;4425;50.872;4.712;2022-09-30T12:51:54;18.40;99.90
8778;DHT22;4425;50.872;4.712;2022-09-30T12:54:25;18.40;99.90
8778;DHT22;4425;50.872;4.712;2022-09-30T12:56:57;18.50;99.90
8778;DHT22;4425;50.872;4.712;2022-09-30T12:59:29;18.50;99.90
8778;DHT22;4425;50.872;4.712;2022-09-30T13:01:58;18.30;99.90
8778;DHT22;4425;50.872;4.712;2022-09-30T13:04:32;18.00;99.90
8778;DHT22;4425;50.872;4.712;2022-09-30T13:07:25;17.90;99.90
8778;DHT22;4425;50.872;4.712;2022-09-30T13:09:57;18.10;99.90
8778;DHT22;4425;50.872;4.712;2022-09-30T13:12:38;18.20;99.90
8778;DHT22;4425;50.872;4.712;2022-09-30T13:15:39;18.10;99.90
8778;DHT22;4425;50.872;4.712;2022-09-30T13:21:22;18.20;99.90
8778;DHT22;4425;50.872;4.712;2022-09-30T13:23:51;18.50;99.90
8778;DHT22;4425;50.872;4.712;2022-09-30T13:26:39;18.60;99.90
8778;DHT22;4425;50.872;4.712;2022-09-30T13:29:26;18.50;99.90
8778;DHT22;4425;50.872;4.712;2022-09-30T13:32:04;18.40;99.90
8778;DHT22;4425;50.872;4.712;2022-09-30T13:34:46;18.20;99.90
8778;DHT22;4425;50.872;4.712;2022-09-30T13:37:33;18.10;99.90
8778;DHT22;4425;50.872;4.712;2022-09-30T13:40:03;18.10;99.90
8778;DHT22;4425;50.872;4.712;2022-09-30T13:42:37;18.10;99.90
8778;DHT22;4425;50.872;4.712;2022-09-30T13:45:13;18.10;99.90
8778;DHT22;4425;50.872;4.712;2022-09-30T13:47:46;18.10;99.90
8778;DHT22;4425;50.872;4.712;2022-09-30T13:50:18;18.20;99.90
8778;DHT22;4425;50.872;4.712;2022-09-30T13:52:47;18.10;99.90
8778;DHT22;4425;50.872;4.712;2022-09-30T13:55:19;18.00;99.90
8778;DHT22;4425;50.872;4.712;2022-09-30T13:57:54;17.90;99.90
8778;DHT22;4425;50.872;4.712;2022-09-30T14:00:35;18.00;99.90
8778;DHT22;4425;50.872;4.712;2022-09-30T14:03:15;18.00;99.90
8778;DHT22;4425;50.872;4.712;2022-09-30T14:06:03;18.00;99.90
8778;DHT22;4425;50.872;4.712;2022-09-30T14:14:44;18.10;99.90
8778;DHT22;4425;50.872;4.712;2022-09-30T14:17:33;18.10;99.90
8778;DHT22;4425;50.872;4.712;2022-09-30T14:20:14;18.10;99.90
8778;DHT22;4425;50.872;4.712;2022-09-30T14:22:45;18.00;99.90
8778;DHT22;4425;50.872;4.712;2022-09-30T14:25:15;17.90;99.90
8778;DHT22;4425;50.872;4.712;2022-09-30T14:27:52;17.90;99.90
8778;DHT22;4425;50.872;4.712;2022-09-30T14:30:24;17.90;99.90
8778;DHT22;4425;50.872;4.712;2022-09-30T14:32:53;17.70;99.90
8778;DHT22;4425;50.872;4.712;2022-09-30T14:35:25;17.70;99.90
8778;DHT22;4425;50.872;4.712;2022-09-30T14:37:57;17.70;99.90
8778;DHT22;4425;50.872;4.712;2022-09-30T14:40:28;17.70;99.90
8778;DHT22;4425;50.872;4.712;2022-09-30T14:42:57;17.70;99.90
8778;DHT22;4425;50.872;4.712;2022-09-30T14:45:50;17.70;99.90
8778;DHT22;4425;50.872;4.712;2022-09-30T14:48:23;17.70;99.90
8778;DHT22;4425;50.872;4.712;2022-09-30T14:50:58;17.70;99.90
8778;DHT22;4425;50.872;4.712;2022-09-30T14:53:28;17.70;99.90
8778;DHT22;4425;50.872;4.712;2022-09-30T14:55:56;17.60;99.90
8778;DHT22;4425;50.872;4.712;2022-09-30T14:58:26;17.50;99.90
8778;DHT22;4425;50.872;4.712;2022-09-30T15:01:01;17.50;99.90
8778;DHT22;4425;50.872;4.712;2022-09-30T15:03:30;17.50;99.90
8778;DHT22;4425;50.872;4.712;2022-09-30T15:06:00;17.50;99.90
8778;DHT22;4425;50.872;4.712;2022-09-30T15:08:28;17.50;99.90
8778;DHT22;4425;50.872;4.712;2022-09-30T15:10:55;17.50;99.90
8778;DHT22;4425;50.872;4.712;2022-09-30T15:13:25;17.40;99.90
8778;DHT22;4425;50.872;4.712;2022-09-30T15:15:53;17.30;99.90
8778;DHT22;4425;50.872;4.712;2022-09-30T15:18:29;17.30;99.90
8778;DHT22;4425;50.872;4.712;2022-09-30T15:21:00;17.40;99.90
8778;DHT22;4425;50.872;4.712;2022-09-30T15:23:31;17.40;99.90
8778;DHT22;4425;50.872;4.712;2022-09-30T15:26:01;17.40;99.90
8778;DHT22;4425;50.872;4.712;2022-09-30T15:28:29;17.30;99.90
8778;DHT22;4425;50.872;4.712;2022-09-30T15:30:58;17.30;99.90
8778;DHT22;4425;50.872;4.712;2022-09-30T15:33:27;17.40;99.90
8778;DHT22;4425;50.872;4.712;2022-09-30T15:36:13;17.40;99.90
8778;DHT22;4425;50.872;4.712;2022-09-30T15:38:48;17.30;99.90
8778;DHT22;4425;50.872;4.712;2022-09-30T15:41:16;17.30;99.90
8778;DHT22;4425;50.872;4.712;2022-09-30T15:43:46;17.10;99.90
8778;DHT22;4425;50.872;4.712;2022-09-30T15:46:22;17.00;99.90
8778;DHT22;4425;50.872;4.712;2022-09-30T15:48:51;17.00;99.90
8778;DHT22;4425;50.872;4.712;2022-09-30T15:51:32;16.90;99.90
8778;DHT22;4425;50.872;4.712;2022-09-30T15:54:01;16.80;99.90
8778;DHT22;4425;50.872;4.712;2022-09-30T15:56:34;16.70;99.90
8778;DHT22;4425;50.872;4.712;2022-09-30T15:59:04;16.70;99.90
8778;DHT22;4425;50.872;4.712;2022-09-30T16:01:35;16.70;99.90
8778;DHT22;4425;50.872;4.712;2022-09-30T16:04:05;16.70;99.90
8778;DHT22;4425;50.872;4.712;2022-09-30T16:06:43;16.60;99.90
8778;DHT22;4425;50.872;4.712;2022-09-30T16:09:26;16.60;99.90
8778;DHT22;4425;50.872;4.712;2022-09-30T16:12:01;16.50;99.90
8778;DHT22;4425;50.872;4.712;2022-09-30T16:14:32;16.50;99.90
8778;DHT22;4425;50.872;4.712;2022-09-30T16:17:03;16.40;99.90
8778;DHT22;4425;50.872;4.712;2022-09-30T16:19:33;16.30;99.90
8778;DHT22;4425;50.872;4.712;2022-09-30T16:22:02;16.30;99.90
8778;DHT22;4425;50.872;4.712;2022-09-30T16:24:46;16.20;99.90
8778;DHT22;4425;50.872;4.712;2022-09-30T16:27:22;16.00;99.90
8778;DHT22;4425;50.872;4.712;2022-09-30T16:29:50;16.00;99.90
8778;DHT22;4425;50.872;4.712;2022-09-30T16:35:48;15.80;99.90
8778;DHT22;4425;50.872;4.712;2022-09-30T16:38:19;15.70;99.90
8778;DHT22;4425;50.872;4.712;2022-09-30T16:40:47;15.80;99.90
8778;DHT22;4425;50.872;4.712;2022-09-30T16:43:14;15.60;99.90
8778;DHT22;4425;50.872;4.712;2022-09-30T16:45:41;15.60;99.90
8778;DHT22;4425;50.872;4.712;2022-09-30T16:48:13;15.40;99.90
8778;DHT22;4425;50.872;4.712;2022-09-30T16:50:44;15.40;99.90
8778;DHT22;4425;50.872;4.712;2022-09-30T16:53:13;15.30;99.90
8778;DHT22;4425;50.872;4.712;2022-09-30T16:55:41;15.30;99.90
8778;DHT22;4425;50.872;4.712;2022-09-30T16:58:11;15.20;99.90
8778;DHT22;4425;50.872;4.712;2022-09-30T17:00:40;15.20;99.90
8778;DHT22;4425;50.872;4.712;2022-09-30T17:03:11;15.10;99.90
8778;DHT22;4425;50.872;4.712;2022-09-30T17:05:39;15.20;99.90
8778;DHT22;4425;50.872;4.712;2022-09-30T17:08:10;15.10;99.90
8778;DHT22;4425;50.872;4.712;2022-09-30T17:10:39;15.00;99.90
8778;DHT22;4425;50.872;4.712;2022-09-30T17:13:07;15.00;99.90
8778;DHT22;4425;50.872;4.712;2022-09-30T17:15:35;14.90;99.90
8778;DHT22;4425;50.872;4.712;2022-09-30T17:18:04;14.90;99.90
8778;DHT22;4425;50.872;4.712;2022-09-30T17:20:32;14.80;99.90
8778;DHT22;4425;50.872;4.712;2022-09-30T17:22:59;14.80;99.90
8778;DHT22;4425;50.872;4.712;2022-09-30T17:25:26;14.80;99.90
8778;DHT22;4425;50.872;4.712;2022-09-30T17:27:54;14.80;99.90
8778;DHT22;4425;50.872;4.712;2022-09-30T17:30:23;14.80;99.90
8778;DHT22;4425;50.872;4.712;2022-09-30T17:32:51;14.70;99.90
8778;DHT22;4425;50.872;4.712;2022-09-30T17:35:19;14.70;99.90
8778;DHT22;4425;50.872;4.712;2022-09-30T17:37:47;14.70;99.90
8778;DHT22;4425;50.872;4.712;2022-09-30T17:40:14;14.70;99.90
8778;DHT22;4425;50.872;4.712;2022-09-30T17:43:02;14.70;99.90
8778;DHT22;4425;50.872;4.712;2022-09-30T17:46:01;14.60;99.90
8778;DHT22;4425;50.872;4.712;2022-09-30T17:48:28;14.60;99.90
8778;DHT22;4425;50.872;4.712;2022-09-30T17:50:55;14.60;99.90
8778;DHT22;4425;50.872;4.712;2022-09-30T17:53:23;14.50;99.90